CBF6 weather

Seal Cove (Public) Heliport
Prince Rupert, British Columbia, Canada

Public forecast

Using degrees Celsius for public forecast. Weather courtesy of forecast.io.

METAR (pilot weather report)

Closest report is Prince Rupert Airport, 6.4 nm (11.9 km) WSW. Retrieved 2019/07/17 23:12 UTC (31 minutes ago):

CYPR 172312Z AUTO 25007KT 190V300 9SM -RA BKN015 BKN050 OVC060 14/13 A2963 RMK SLP036 DENSITY ALT 300FT

TAF (pilot weather forecast)

Closest forecast is Prince Rupert Airport, 6.4 nm (11.9 km) WSW. Retrieved 2019/07/17 19:42 UTC (4 hours ago):

TAF TAF CYPR 171838Z 1719/1807 23008KT 6SM -RA BR SCT005 OVC015 TEMPO 1719/1722 2SM -SHRA BR BKN005 OVC010 FM172200 26010G20KT P6SM -SHRA SCT015 OVC025 TEMPO 1722/1805 4SM -SHRA BR SCT008 OVC015 FM180500 26010KT 6SM -SHRA BR SCT005 OVC015 TEMPO 1805/1807 2SM -SHRA BR BKN005 OVC010 RMK FCST BASED ON AUTO OBS. NXT FCST BY 180100Z